This is the latest recevied weather packets stored in our database for station/object KO6MEX-13. If no packets are shown the sender has not sent any weather packets the latest 10 day(s).
| Time | Temp. | Humidity | Pressure | Rain* | Wind** | Luminosity | Snow |
|---|---|---|---|---|---|---|---|
| 1777917354 | 18.33° C | 56% | 1019.2 hPa | 0 mm | - | 843 W/m² | - |
| 1777917051 | 17.78° C | 59% | 1019.2 hPa | 0 mm | - | 822 W/m² | - |
| 1777916749 | 18.33° C | 55% | 1019.2 hPa | 0 mm | - | 809 W/m² | - |
| 1777916445 | 17.78° C | 57% | 1019.1 hPa | 0 mm | - | 820 W/m² | - |
| 1777916142 | 17.22° C | 58% | 1019.1 hPa | 0 mm | - | 803 W/m² | - |
| 1777915840 | 17.22° C | 58% | 1019.1 hPa | 0 mm | - | 793 W/m² | - |
| 1777915536 | 16.67° C | 59% | 1018.8 hPa | 0 mm | - | 786 W/m² | - |
| 1777915232 | 17.22° C | 59% | 1018.9 hPa | 0 mm | - | 821 W/m² | - |
| 1777914929 | 17.78° C | 57% | 1019.1 hPa | 0 mm | - | 451 W/m² | - |
| 1777914626 | 18.33° C | 56% | 1019 hPa | 0 mm | - | 788 W/m² | - |
| 1777914322 | 18.33° C | 55% | 1019.2 hPa | 0 mm | - | 703 W/m² | - |
| 1777914020 | 19.44° C | 51% | 1018.9 hPa | 0 mm | - | 691 W/m² | - |
| 1777913716 | 17.78° C | 54% | 1018.9 hPa | 0 mm | - | 691 W/m² | - |
| 1777913413 | 17.78° C | 56% | 1018.9 hPa | 0 mm | - | 665 W/m² | - |
| 1777913109 | 17.78° C | 55% | 1018.9 hPa | 0 mm | - | 641 W/m² | - |
| 1777912806 | 16.67° C | 59% | 1018.9 hPa | 0 mm | - | 636 W/m² | - |
| 1777912501 | 16.67° C | 59% | 1019.2 hPa | 0 mm | - | 603 W/m² | - |
| 1777912198 | 17.22° C | 57% | 1018.8 hPa | 0 mm | - | 593 W/m² | - |
| 1777911895 | 16.67° C | 59% | 1018.9 hPa | 0 mm | - | 567 W/m² | - |
| 1777911591 | 16.67° C | 59% | 1019.1 hPa | 0 mm | - | 512 W/m² | - |
| 1777911286 | 16.67° C | 61% | 1019.2 hPa | 0 mm | - | 465 W/m² | - |
| 1777910984 | 16.67° C | 61% | 1019 hPa | 0 mm | - | 451 W/m² | - |
| 1777910682 | 15.56° C | 64% | 1018.8 hPa | 0 mm | - | 383 W/m² | - |
| 1777910378 | 15° C | 67% | 1018.8 hPa | 0 mm | - | 328 W/m² | - |
| 1777910075 | 15° C | 66% | 1019 hPa | 0 mm | - | 364 W/m² | - |
* Rain latest hour (hover to see other rain measurements)
** Current wind speed in m/s (hover to see current wind gust speed)